createdAt,value
2023-05-08T00:00:45.729Z,10.40
2023-05-08T00:03:12.615Z,10.60
2023-05-08T00:05:41.272Z,10.20
2023-05-08T00:08:07.794Z,9.20
2023-05-08T00:13:01.767Z,9.10
2023-05-08T00:15:28.355Z,10.90
2023-05-08T00:17:54.991Z,10.50
2023-05-08T00:20:21.698Z,11.10
2023-05-08T00:22:48.283Z,10.90
2023-05-08T00:25:15.025Z,11.90
2023-05-08T00:27:41.593Z,11.90
2023-05-08T00:30:08.452Z,11.80
2023-05-08T00:32:35.025Z,12.10
2023-05-08T00:35:01.577Z,12.40
2023-05-08T00:37:28.170Z,12.80
2023-05-08T00:39:54.741Z,12.80
2023-05-08T00:42:21.356Z,12.80
2023-05-08T00:44:48.061Z,13.10
2023-05-08T00:47:14.675Z,12.80
2023-05-08T00:49:41.392Z,12.80
2023-05-08T00:52:11.002Z,12.80
2023-05-08T00:54:38.112Z,12.80
2023-05-08T00:57:06.768Z,12.70
2023-05-08T00:59:34.670Z,12.90
2023-05-08T01:02:01.984Z,12.70
2023-05-08T01:04:30.206Z,13.30
2023-05-08T01:06:56.731Z,12.60
2023-05-08T01:09:23.388Z,12.60
2023-05-08T01:11:55.498Z,13.20
2023-05-08T01:14:30.146Z,14.50
2023-05-08T01:16:59.498Z,14.90
2023-05-08T01:19:35.219Z,14.90
2023-05-08T01:22:25.074Z,13.20
2023-05-08T01:25:06.703Z,12.50
2023-05-08T01:27:47.937Z,13.10
2023-05-08T01:30:33.017Z,15.70
2023-05-08T01:33:04.168Z,12.60
2023-05-08T01:35:34.249Z,14.60
2023-05-08T01:38:07.647Z,14.00
2023-05-08T01:40:37.130Z,14.90
2023-05-08T01:43:10.739Z,15.10
2023-05-08T01:45:41.657Z,15.50
2023-05-08T01:48:10.829Z,15.80
2023-05-08T01:50:48.453Z,15.70
2023-05-08T01:53:41.422Z,15.80
2023-05-08T01:56:17.140Z,15.90
2023-05-08T01:58:44.195Z,17.10
2023-05-08T02:01:12.495Z,17.00
2023-05-08T02:03:43.145Z,17.30
2023-05-08T02:06:10.438Z,17.20
2023-05-08T02:08:39.781Z,18.40
2023-05-08T02:11:06.890Z,19.70
2023-05-08T02:13:34.908Z,18.70
2023-05-08T02:16:02.260Z,17.70
2023-05-08T02:18:31.886Z,18.20
2023-05-08T02:20:59.871Z,18.00
2023-05-08T02:23:27.170Z,17.50
2023-05-08T02:25:54.481Z,17.40
2023-05-08T02:28:21.648Z,18.10
2023-05-08T02:30:49.264Z,18.00
2023-05-08T02:33:16.778Z,17.60
2023-05-08T02:35:44.527Z,16.90
2023-05-08T02:38:12.002Z,16.90
2023-05-08T02:40:41.717Z,17.10
2023-05-08T02:43:08.392Z,17.40
2023-05-08T02:45:55.579Z,18.20
2023-05-08T02:48:23.690Z,18.90
2023-05-08T02:51:09.125Z,20.30
2023-05-08T02:53:37.470Z,17.50
2023-05-08T02:56:21.940Z,16.90
2023-05-08T02:59:00.977Z,16.90
2023-05-08T03:01:30.268Z,17.30
2023-05-08T03:04:02.571Z,17.10
2023-05-08T03:06:32.161Z,17.70
2023-05-08T03:09:00.383Z,17.70
2023-05-08T03:13:56.993Z,16.90
2023-05-08T03:18:56.828Z,18.80
2023-05-08T03:28:47.884Z,19.60
2023-05-08T04:08:08.585Z,20.50
2023-05-08T04:10:40.462Z,20.50
2023-05-08T04:32:46.635Z,20.70
2023-05-08T05:16:57.811Z,12.50
2023-05-08T05:26:45.886Z,14.40
2023-05-08T06:01:11.917Z,3.60
2023-05-08T06:03:38.736Z,3.10
2023-05-08T06:08:32.436Z,3.20
2023-05-08T06:23:14.504Z,1.40
2023-05-08T06:25:41.021Z,1.30
2023-05-08T06:42:50.614Z,1.00
2023-05-08T06:45:17.312Z,1.00
2023-05-08T06:47:43.938Z,1.00
2023-05-08T06:50:12.263Z,1.00
2023-05-08T06:52:38.832Z,1.00
2023-05-08T06:55:05.710Z,1.00
2023-05-08T07:07:20.796Z,1.00
2023-05-08T07:09:47.381Z,1.00
2023-05-08T07:12:16.539Z,1.00
2023-05-08T07:14:43.568Z,1.00
2023-05-08T07:17:10.192Z,1.00
2023-05-08T07:19:36.968Z,1.00
2023-05-08T07:22:04.157Z,1.00
2023-05-08T07:24:31.692Z,1.00
2023-05-08T07:26:59.598Z,1.00
2023-05-08T07:29:26.876Z,1.00
2023-05-08T07:31:53.837Z,1.00
2023-05-08T07:34:20.623Z,1.00
2023-05-08T07:36:47.193Z,1.00
2023-05-08T07:39:13.827Z,1.00
2023-05-08T07:41:41.086Z,1.00
2023-05-08T07:44:07.997Z,1.00
2023-05-08T07:46:34.784Z,1.00
2023-05-08T07:49:01.509Z,1.00
2023-05-08T07:51:28.135Z,1.00
2023-05-08T07:53:55.226Z,1.00
2023-05-08T07:56:23.068Z,1.00
2023-05-08T07:58:49.901Z,1.00
2023-05-08T08:01:18.275Z,1.00
2023-05-08T08:03:45.662Z,1.00
2023-05-08T08:06:12.282Z,1.00
2023-05-08T08:08:39.246Z,1.00
2023-05-08T08:11:06.505Z,1.00
2023-05-08T08:13:33.288Z,1.00
2023-05-08T08:16:00.399Z,1.00
2023-05-08T08:18:26.975Z,1.00
2023-05-08T08:20:53.543Z,1.00
2023-05-08T08:23:20.094Z,1.00
2023-05-08T08:25:46.668Z,1.00
2023-05-08T08:28:13.245Z,1.00
2023-05-08T08:30:39.898Z,1.00
2023-05-08T08:33:07.264Z,1.00
2023-05-08T08:35:33.901Z,1.00
2023-05-08T08:38:00.960Z,1.00
2023-05-08T08:40:28.347Z,1.00
2023-05-08T08:42:55.084Z,1.00
2023-05-08T08:45:21.655Z,1.00
2023-05-08T08:47:48.553Z,1.00
2023-05-08T08:50:15.876Z,1.00
2023-05-08T08:52:48.126Z,1.00
2023-05-08T08:55:18.661Z,1.00
2023-05-08T08:57:52.967Z,1.00
2023-05-08T09:00:21.208Z,1.00
2023-05-08T09:02:48.209Z,1.00
2023-05-08T09:05:15.449Z,1.00
2023-05-08T09:07:44.059Z,1.00
2023-05-08T09:10:15.349Z,1.00
2023-05-08T09:12:42.227Z,1.00
2023-05-08T09:15:08.873Z,1.00
2023-05-08T09:17:35.471Z,1.00
2023-05-08T09:20:02.755Z,1.00
2023-05-08T09:22:30.307Z,1.00
2023-05-08T09:24:58.326Z,1.00
2023-05-08T09:27:26.000Z,1.00
2023-05-08T09:29:58.671Z,1.00
2023-05-08T09:32:25.528Z,1.00
2023-05-08T09:34:52.753Z,1.00
2023-05-08T09:37:19.319Z,1.00
2023-05-08T09:39:47.682Z,1.00
2023-05-08T09:42:14.248Z,1.00
2023-05-08T09:44:47.745Z,1.00
2023-05-08T09:47:15.756Z,1.00
2023-05-08T09:50:02.747Z,1.00
2023-05-08T09:52:29.917Z,1.00
2023-05-08T09:54:57.469Z,1.00
2023-05-08T09:57:24.196Z,1.00
2023-05-08T09:59:50.731Z,1.00
2023-05-08T10:02:17.508Z,1.00
2023-05-08T10:04:44.174Z,1.00
2023-05-08T10:07:10.750Z,1.00
2023-05-08T10:09:49.850Z,1.00
2023-05-08T10:12:17.139Z,1.00
2023-05-08T10:14:46.386Z,1.00
2023-05-08T10:17:16.469Z,1.00
2023-05-08T10:19:45.804Z,1.00
2023-05-08T10:22:13.649Z,1.00
2023-05-08T10:24:41.336Z,1.00
2023-05-08T10:27:08.098Z,1.00
2023-05-08T10:29:42.958Z,1.00
2023-05-08T10:32:10.350Z,1.00
2023-05-08T10:34:40.245Z,1.00
2023-05-08T10:37:10.205Z,1.00
2023-05-08T10:39:37.313Z,1.00
2023-05-08T10:42:04.499Z,1.00
2023-05-08T10:44:31.695Z,1.00
2023-05-08T10:47:03.984Z,1.00
2023-05-08T10:49:49.606Z,1.00
2023-05-08T10:52:24.097Z,1.00
2023-05-08T10:54:53.666Z,1.00
2023-05-08T10:57:20.221Z,1.00
2023-05-08T10:59:47.111Z,1.00
2023-05-08T11:02:14.139Z,1.00
2023-05-08T11:04:41.037Z,1.00
2023-05-08T11:07:07.709Z,1.00
2023-05-08T11:09:45.893Z,1.00
2023-05-08T11:12:28.075Z,1.00
2023-05-08T11:15:01.533Z,1.00
2023-05-08T11:17:28.834Z,1.00
2023-05-08T11:19:57.220Z,1.00
2023-05-08T11:22:25.846Z,1.00
2023-05-08T11:24:54.577Z,1.00
2023-05-08T11:27:35.250Z,1.00
2023-05-08T11:30:20.419Z,1.00
2023-05-08T11:32:55.654Z,1.00
2023-05-08T11:35:40.654Z,1.00
2023-05-08T11:38:17.249Z,1.00
2023-05-08T11:40:47.061Z,1.00
2023-05-08T11:43:29.216Z,1.00
2023-05-08T11:45:59.398Z,1.00
2023-05-08T11:48:26.269Z,1.00
2023-05-08T11:50:52.999Z,1.00
2023-05-08T11:53:19.609Z,1.00
2023-05-08T11:55:49.580Z,1.00
2023-05-08T11:58:16.471Z,1.00
2023-05-08T12:00:45.778Z,1.00
2023-05-08T12:03:13.667Z,1.00
2023-05-08T12:05:40.737Z,1.00
2023-05-08T12:08:07.903Z,1.00
2023-05-08T12:10:41.659Z,1.00
2023-05-08T12:13:25.447Z,1.00
2023-05-08T12:15:53.532Z,1.00
2023-05-08T12:18:20.908Z,1.00
2023-05-08T12:20:55.275Z,1.00
2023-05-08T12:23:21.958Z,1.00
2023-05-08T12:25:54.352Z,1.00
2023-05-08T12:28:21.862Z,1.00
2023-05-08T12:30:48.767Z,1.00
2023-05-08T12:33:16.106Z,1.00
2023-05-08T12:35:44.755Z,1.00
2023-05-08T12:38:12.039Z,1.00
2023-05-08T12:40:45.636Z,1.00
2023-05-08T12:43:12.222Z,1.00
2023-05-08T12:45:39.871Z,1.00
2023-05-08T12:48:07.996Z,1.00
2023-05-08T12:50:38.899Z,1.00
2023-05-08T12:53:06.551Z,1.00
2023-05-08T12:55:33.953Z,1.00
2023-05-08T12:58:04.949Z,1.00
2023-05-08T13:00:38.902Z,1.00
2023-05-08T13:03:05.903Z,1.00
2023-05-08T13:05:32.587Z,1.00
2023-05-08T13:08:03.326Z,1.00
2023-05-08T13:10:46.347Z,1.00
2023-05-08T13:13:13.503Z,1.00
2023-05-08T13:15:40.338Z,1.00
2023-05-08T13:18:07.504Z,1.00
2023-05-08T13:20:34.857Z,1.00
2023-05-08T13:23:01.632Z,1.00
2023-05-08T13:25:28.267Z,1.00
2023-05-08T13:27:54.824Z,1.00
2023-05-08T13:30:22.168Z,1.00
2023-05-08T13:32:52.048Z,1.00
2023-05-08T13:35:19.636Z,1.00
2023-05-08T13:37:46.721Z,1.00
2023-05-08T13:40:13.585Z,1.00
2023-05-08T13:42:40.593Z,1.00
2023-05-08T13:45:07.852Z,1.00
2023-05-08T13:47:34.980Z,1.00
2023-05-08T13:50:01.634Z,1.00
2023-05-08T13:52:30.272Z,1.00
2023-05-08T13:54:57.980Z,1.00
2023-05-08T13:57:24.824Z,1.00
2023-05-08T13:59:51.355Z,1.00
2023-05-08T14:02:18.203Z,1.00
2023-05-08T14:04:44.896Z,1.00
2023-05-08T14:07:11.511Z,1.00
2023-05-08T14:09:38.099Z,1.00
2023-05-08T14:12:04.782Z,1.00
2023-05-08T14:14:32.568Z,1.00
2023-05-08T14:17:00.930Z,1.00
2023-05-08T14:19:27.480Z,1.00
2023-05-08T14:21:54.044Z,1.00
2023-05-08T14:24:20.605Z,1.00
2023-05-08T14:26:47.222Z,1.00
2023-05-08T14:29:13.842Z,1.00
2023-05-08T14:31:40.500Z,1.00
2023-05-08T14:34:07.163Z,1.00
2023-05-08T14:36:33.726Z,1.00
2023-05-08T14:39:00.688Z,1.00
2023-05-08T14:41:27.770Z,1.00
2023-05-08T14:43:54.422Z,1.00
2023-05-08T14:46:21.035Z,1.00
2023-05-08T14:48:47.694Z,1.00
2023-05-08T14:51:14.278Z,1.00
2023-05-08T14:53:41.606Z,1.00
2023-05-08T14:56:08.578Z,1.00
2023-05-08T14:58:35.311Z,1.00
2023-05-08T15:01:01.878Z,1.00
2023-05-08T15:03:28.547Z,1.00
2023-05-08T15:05:55.380Z,1.00
2023-05-08T15:08:21.970Z,1.00
2023-05-08T15:10:48.527Z,1.00
2023-05-08T15:13:15.478Z,1.00
2023-05-08T15:15:42.100Z,1.00
2023-05-08T15:18:08.706Z,1.00
2023-05-08T15:20:35.355Z,1.00
2023-05-08T15:23:01.916Z,1.00
2023-05-08T15:25:28.524Z,1.00
2023-05-08T15:27:55.095Z,1.00
2023-05-08T15:30:21.956Z,1.00
2023-05-08T15:32:48.766Z,1.00
2023-05-08T15:35:15.720Z,1.00
2023-05-08T15:37:42.528Z,1.00
2023-05-08T15:40:09.520Z,1.00
2023-05-08T15:42:36.092Z,1.00
2023-05-08T15:45:02.792Z,1.00
2023-05-08T15:47:29.706Z,1.00
2023-05-08T15:49:56.228Z,1.00
2023-05-08T15:52:23.412Z,1.00
2023-05-08T15:54:50.239Z,1.00
2023-05-08T15:57:16.839Z,1.00
2023-05-08T15:59:43.402Z,1.00
2023-05-08T16:02:10.196Z,1.00
2023-05-08T16:04:36.806Z,1.00
2023-05-08T16:07:04.354Z,1.00
2023-05-08T16:09:30.908Z,1.00
2023-05-08T16:11:57.499Z,1.00
2023-05-08T16:14:24.045Z,1.00
2023-05-08T16:16:50.682Z,1.00
2023-05-08T16:19:17.318Z,1.00
2023-05-08T16:21:47.855Z,1.00
2023-05-08T16:24:14.632Z,1.00
2023-05-08T16:26:41.208Z,1.00
2023-05-08T16:29:07.830Z,1.00
2023-05-08T16:31:35.069Z,1.00
2023-05-08T16:34:01.694Z,1.00
2023-05-08T16:36:28.439Z,1.00
2023-05-08T16:38:55.074Z,1.00
2023-05-08T16:41:22.947Z,1.00
2023-05-08T16:43:49.551Z,1.00
2023-05-08T16:46:17.479Z,1.00
2023-05-08T16:48:48.679Z,1.00
2023-05-08T16:51:15.898Z,1.00
2023-05-08T16:53:42.561Z,1.00
2023-05-08T16:56:09.337Z,1.00
2023-05-08T16:58:35.988Z,1.00
2023-05-08T17:01:02.684Z,1.00
2023-05-08T17:03:29.649Z,1.00
2023-05-08T17:08:24.014Z,1.00
2023-05-08T17:10:51.526Z,1.00
2023-05-08T17:13:18.281Z,1.00
2023-05-08T17:20:42.276Z,1.00
2023-05-08T17:23:09.531Z,1.00
2023-05-08T17:25:36.142Z,1.00
2023-05-08T17:30:31.256Z,1.00
2023-05-08T17:32:58.262Z,1.00
2023-05-08T17:35:25.094Z,1.00
2023-05-08T17:37:51.719Z,1.00
2023-05-08T17:42:46.079Z,1.00
2023-05-08T17:45:12.687Z,1.00
2023-05-08T17:47:40.211Z,1.00
2023-05-08T17:50:09.162Z,1.00
2023-05-08T17:52:36.328Z,1.00
2023-05-08T17:55:03.089Z,1.00
2023-05-08T17:57:29.652Z,1.00
2023-05-08T18:02:23.247Z,1.00
2023-05-08T18:07:16.790Z,1.00
2023-05-08T18:09:43.384Z,1.00
2023-05-08T18:12:10.085Z,1.00
2023-05-08T18:14:38.393Z,1.00
2023-05-08T18:17:06.048Z,1.00
2023-05-08T18:19:32.911Z,1.00
2023-05-08T18:22:02.053Z,1.00
2023-05-08T18:24:29.367Z,1.00
2023-05-08T18:26:55.972Z,1.00
2023-05-08T18:29:22.634Z,1.00
2023-05-08T18:31:49.493Z,1.00
2023-05-08T18:39:10.368Z,1.00
2023-05-08T18:41:36.983Z,1.00
2023-05-08T18:44:05.703Z,1.00
2023-05-08T18:46:32.533Z,1.00
2023-05-08T18:48:59.202Z,1.00
2023-05-08T18:51:26.113Z,1.00
2023-05-08T18:53:52.696Z,1.00
2023-05-08T18:56:19.635Z,1.00
2023-05-08T18:58:46.643Z,1.00
2023-05-08T19:01:13.386Z,1.00
2023-05-08T19:03:40.012Z,1.00
2023-05-08T19:06:06.780Z,1.00
2023-05-08T19:08:33.441Z,1.00
2023-05-08T19:10:59.970Z,1.00
2023-05-08T19:13:26.646Z,1.00
2023-05-08T19:15:54.204Z,1.00
2023-05-08T19:18:20.933Z,1.00
2023-05-08T19:20:47.614Z,1.00
2023-05-08T19:23:14.151Z,1.00
2023-05-08T19:25:40.687Z,1.00
2023-05-08T19:28:07.283Z,1.00
2023-05-08T19:30:33.813Z,1.00
2023-05-08T19:33:00.390Z,1.00
2023-05-08T19:35:27.178Z,1.00
2023-05-08T19:37:54.252Z,1.00
2023-05-08T19:40:20.912Z,1.00
2023-05-08T19:42:47.504Z,1.00
2023-05-08T19:45:16.170Z,1.00
2023-05-08T19:47:42.840Z,1.00
2023-05-08T19:50:12.427Z,1.00
2023-05-08T19:52:39.227Z,1.00
2023-05-08T19:55:06.169Z,1.00
2023-05-08T19:57:32.818Z,1.00
2023-05-08T19:59:59.953Z,1.00
2023-05-08T20:02:26.677Z,1.00
2023-05-08T20:05:21.199Z,1.00
2023-05-08T20:07:40.077Z,1.00
2023-05-08T20:22:22.629Z,1.00
2023-05-08T20:49:24.558Z,1.00
2023-05-08T20:59:12.128Z,1.00
2023-05-08T22:12:43.268Z,19.60
2023-05-08T22:15:25.474Z,23.00
2023-05-08T22:20:22.791Z,19.80
2023-05-08T22:37:32.711Z,8.70
2023-05-08T22:39:59.407Z,8.90
2023-05-08T22:59:37.925Z,13.40
2023-05-08T23:04:31.996Z,14.10
